sensor_id;sensor_type;location;lat;lon;timestamp;P1;durP1;ratioP1;P2;durP2;ratioP2
45039;SDS011;30778;53.574;7.770;2023-04-01T00:02:18;6.38;;;3.72;;
45039;SDS011;30778;53.574;7.770;2023-04-01T00:04:44;7.88;;;3.42;;
45039;SDS011;30778;53.574;7.770;2023-04-01T00:07:09;8.07;;;4.57;;
45039;SDS011;30778;53.574;7.770;2023-04-01T00:09:35;7.45;;;4.40;;
45039;SDS011;30778;53.574;7.770;2023-04-01T00:12:01;4.93;;;4.00;;
45039;SDS011;30778;53.574;7.770;2023-04-01T00:14:27;8.38;;;4.90;;
45039;SDS011;30778;53.574;7.770;2023-04-01T00:16:52;9.18;;;4.60;;
45039;SDS011;30778;53.574;7.770;2023-04-01T00:19:18;10.40;;;5.43;;
45039;SDS011;30778;53.574;7.770;2023-04-01T00:21:43;9.85;;;5.15;;
45039;SDS011;30778;53.574;7.770;2023-04-01T00:24:09;8.63;;;4.32;;
45039;SDS011;30778;53.574;7.770;2023-04-01T00:26:35;10.38;;;5.60;;
45039;SDS011;30778;53.574;7.770;2023-04-01T00:29:00;10.45;;;5.78;;
45039;SDS011;30778;53.574;7.770;2023-04-01T00:31:26;7.43;;;5.35;;
45039;SDS011;30778;53.574;7.770;2023-04-01T00:33:52;6.57;;;4.78;;
45039;SDS011;30778;53.574;7.770;2023-04-01T00:36:19;8.82;;;5.47;;
45039;SDS011;30778;53.574;7.770;2023-04-01T00:38:46;9.43;;;6.30;;
45039;SDS011;30778;53.574;7.770;2023-04-01T00:41:13;13.55;;;6.53;;
45039;SDS011;30778;53.574;7.770;2023-04-01T00:43:40;10.98;;;6.40;;
45039;SDS011;30778;53.574;7.770;2023-04-01T00:46:06;7.18;;;5.78;;
45039;SDS011;30778;53.574;7.770;2023-04-01T00:48:36;10.90;;;6.82;;
45039;SDS011;30778;53.574;7.770;2023-04-01T00:51:06;11.25;;;5.55;;
45039;SDS011;30778;53.574;7.770;2023-04-01T00:53:36;8.85;;;6.03;;
45039;SDS011;30778;53.574;7.770;2023-04-01T00:56:12;9.90;;;6.18;;
45039;SDS011;30778;53.574;7.770;2023-04-01T00:58:46;12.25;;;5.93;;
45039;SDS011;30778;53.574;7.770;2023-04-01T01:01:16;12.98;;;6.43;;
45039;SDS011;30778;53.574;7.770;2023-04-01T01:03:42;11.07;;;6.82;;
45039;SDS011;30778;53.574;7.770;2023-04-01T01:11:20;9.65;;;6.57;;
45039;SDS011;30778;53.574;7.770;2023-04-01T01:14:01;13.30;;;6.72;;
45039;SDS011;30778;53.574;7.770;2023-04-01T01:16:33;12.05;;;7.68;;
45039;SDS011;30778;53.574;7.770;2023-04-01T01:19:21;13.00;;;7.78;;
45039;SDS011;30778;53.574;7.770;2023-04-01T01:22:11;15.45;;;7.75;;
45039;SDS011;30778;53.574;7.770;2023-04-01T01:28:13;14.15;;;7.68;;
45039;SDS011;30778;53.574;7.770;2023-04-01T01:30:47;11.75;;;7.07;;
45039;SDS011;30778;53.574;7.770;2023-04-01T01:33:36;11.70;;;7.47;;
45039;SDS011;30778;53.574;7.770;2023-04-01T01:36:04;13.90;;;7.00;;
45039;SDS011;30778;53.574;7.770;2023-04-01T01:38:34;17.65;;;7.43;;
45039;SDS011;30778;53.574;7.770;2023-04-01T01:41:04;16.23;;;8.55;;
45039;SDS011;30778;53.574;7.770;2023-04-01T01:43:35;14.20;;;7.60;;
45039;SDS011;30778;53.574;7.770;2023-04-01T01:46:06;14.98;;;8.07;;
45039;SDS011;30778;53.574;7.770;2023-04-01T01:48:36;14.43;;;7.78;;
45039;SDS011;30778;53.574;7.770;2023-04-01T01:51:07;16.42;;;8.20;;
45039;SDS011;30778;53.574;7.770;2023-04-01T01:53:33;13.02;;;7.93;;
45039;SDS011;30778;53.574;7.770;2023-04-01T01:55:59;10.60;;;7.10;;
45039;SDS011;30778;53.574;7.770;2023-04-01T02:01:12;16.48;;;8.80;;
45039;SDS011;30778;53.574;7.770;2023-04-01T02:03:42;17.00;;;9.45;;
45039;SDS011;30778;53.574;7.770;2023-04-01T02:06:10;14.55;;;8.02;;
45039;SDS011;30778;53.574;7.770;2023-04-01T02:08:50;17.40;;;8.05;;
45039;SDS011;30778;53.574;7.770;2023-04-01T02:11:21;15.15;;;8.90;;
45039;SDS011;30778;53.574;7.770;2023-04-01T02:13:54;15.10;;;8.50;;
45039;SDS011;30778;53.574;7.770;2023-04-01T02:16:26;14.05;;;8.48;;
45039;SDS011;30778;53.574;7.770;2023-04-01T02:18:57;14.30;;;8.68;;
45039;SDS011;30778;53.574;7.770;2023-04-01T02:21:26;18.27;;;7.93;;
45039;SDS011;30778;53.574;7.770;2023-04-01T02:23:55;12.38;;;7.53;;
45039;SDS011;30778;53.574;7.770;2023-04-01T02:26:23;12.48;;;7.63;;
45039;SDS011;30778;53.574;7.770;2023-04-01T02:28:51;16.52;;;7.90;;
45039;SDS011;30778;53.574;7.770;2023-04-01T02:31:18;12.02;;;8.10;;
45039;SDS011;30778;53.574;7.770;2023-04-01T02:33:45;14.75;;;8.00;;
45039;SDS011;30778;53.574;7.770;2023-04-01T02:36:12;10.77;;;7.00;;
45039;SDS011;30778;53.574;7.770;2023-04-01T02:38:39;12.48;;;7.28;;
45039;SDS011;30778;53.574;7.770;2023-04-01T02:41:05;11.93;;;7.03;;
45039;SDS011;30778;53.574;7.770;2023-04-01T02:43:32;11.52;;;7.30;;
45039;SDS011;30778;53.574;7.770;2023-04-01T02:45:58;16.05;;;7.10;;
45039;SDS011;30778;53.574;7.770;2023-04-01T02:48:23;11.82;;;6.88;;
45039;SDS011;30778;53.574;7.770;2023-04-01T02:50:49;14.30;;;7.88;;
45039;SDS011;30778;53.574;7.770;2023-04-01T02:53:16;16.38;;;8.65;;
45039;SDS011;30778;53.574;7.770;2023-04-01T02:55:42;16.40;;;9.13;;
45039;SDS011;30778;53.574;7.770;2023-04-01T02:58:07;14.75;;;8.75;;
45039;SDS011;30778;53.574;7.770;2023-04-01T03:00:33;17.05;;;8.75;;
45039;SDS011;30778;53.574;7.770;2023-04-01T03:02:59;14.77;;;8.73;;
45039;SDS011;30778;53.574;7.770;2023-04-01T03:05:24;13.52;;;8.75;;
45039;SDS011;30778;53.574;7.770;2023-04-01T03:07:50;14.60;;;8.30;;
45039;SDS011;30778;53.574;7.770;2023-04-01T03:10:16;16.55;;;9.50;;
45039;SDS011;30778;53.574;7.770;2023-04-01T03:12:42;15.82;;;8.18;;
45039;SDS011;30778;53.574;7.770;2023-04-01T03:15:09;14.55;;;9.02;;
45039;SDS011;30778;53.574;7.770;2023-04-01T03:17:35;15.82;;;9.27;;
45039;SDS011;30778;53.574;7.770;2023-04-01T03:20:01;16.73;;;9.40;;
45039;SDS011;30778;53.574;7.770;2023-04-01T03:22:28;18.77;;;9.18;;
45039;SDS011;30778;53.574;7.770;2023-04-01T03:24:53;17.58;;;8.93;;
45039;SDS011;30778;53.574;7.770;2023-04-01T03:27:18;18.23;;;9.68;;
45039;SDS011;30778;53.574;7.770;2023-04-01T03:29:44;20.50;;;9.30;;
45039;SDS011;30778;53.574;7.770;2023-04-01T03:32:11;18.75;;;9.98;;
45039;SDS011;30778;53.574;7.770;2023-04-01T03:34:36;17.50;;;9.35;;
45039;SDS011;30778;53.574;7.770;2023-04-01T03:37:02;18.75;;;10.85;;
45039;SDS011;30778;53.574;7.770;2023-04-01T03:39:30;16.38;;;9.15;;
45039;SDS011;30778;53.574;7.770;2023-04-01T03:41:56;18.08;;;9.55;;
45039;SDS011;30778;53.574;7.770;2023-04-01T03:44:21;14.75;;;8.45;;
45039;SDS011;30778;53.574;7.770;2023-04-01T03:46:50;18.27;;;9.02;;
45039;SDS011;30778;53.574;7.770;2023-04-01T03:49:16;17.20;;;9.80;;
45039;SDS011;30778;53.574;7.770;2023-04-01T03:51:42;17.42;;;9.23;;
45039;SDS011;30778;53.574;7.770;2023-04-01T03:54:09;15.80;;;9.25;;
45039;SDS011;30778;53.574;7.770;2023-04-01T03:56:35;17.58;;;9.68;;
45039;SDS011;30778;53.574;7.770;2023-04-01T03:59:02;13.43;;;9.02;;
45039;SDS011;30778;53.574;7.770;2023-04-01T04:01:29;15.02;;;8.73;;
45039;SDS011;30778;53.574;7.770;2023-04-01T04:03:56;17.17;;;10.20;;
45039;SDS011;30778;53.574;7.770;2023-04-01T04:06:22;14.93;;;9.73;;
45039;SDS011;30778;53.574;7.770;2023-04-01T04:08:48;17.55;;;10.30;;
45039;SDS011;30778;53.574;7.770;2023-04-01T04:11:15;19.30;;;9.38;;
45039;SDS011;30778;53.574;7.770;2023-04-01T04:13:41;15.65;;;9.82;;
45039;SDS011;30778;53.574;7.770;2023-04-01T04:16:08;19.88;;;10.30;;
45039;SDS011;30778;53.574;7.770;2023-04-01T04:18:38;20.48;;;10.05;;
45039;SDS011;30778;53.574;7.770;2023-04-01T04:21:03;19.35;;;9.90;;
45039;SDS011;30778;53.574;7.770;2023-04-01T04:23:29;18.52;;;10.07;;
45039;SDS011;30778;53.574;7.770;2023-04-01T04:25:57;18.02;;;10.18;;
45039;SDS011;30778;53.574;7.770;2023-04-01T04:28:26;15.48;;;8.95;;
45039;SDS011;30778;53.574;7.770;2023-04-01T04:30:54;15.15;;;8.68;;
45039;SDS011;30778;53.574;7.770;2023-04-01T04:33:23;13.88;;;8.73;;
45039;SDS011;30778;53.574;7.770;2023-04-01T04:35:50;18.35;;;8.65;;
45039;SDS011;30778;53.574;7.770;2023-04-01T04:38:17;19.48;;;9.07;;
45039;SDS011;30778;53.574;7.770;2023-04-01T04:40:43;18.52;;;8.50;;
45039;SDS011;30778;53.574;7.770;2023-04-01T04:43:11;14.13;;;7.90;;
45039;SDS011;30778;53.574;7.770;2023-04-01T04:45:41;17.70;;;9.80;;
45039;SDS011;30778;53.574;7.770;2023-04-01T04:48:08;16.63;;;9.10;;
45039;SDS011;30778;53.574;7.770;2023-04-01T04:50:39;18.38;;;9.55;;
45039;SDS011;30778;53.574;7.770;2023-04-01T04:53:05;18.95;;;9.23;;
45039;SDS011;30778;53.574;7.770;2023-04-01T04:55:31;18.33;;;8.35;;
45039;SDS011;30778;53.574;7.770;2023-04-01T04:58:16;17.10;;;8.88;;
45039;SDS011;30778;53.574;7.770;2023-04-01T05:00:44;14.95;;;9.02;;
45039;SDS011;30778;53.574;7.770;2023-04-01T05:03:17;18.42;;;10.45;;
45039;SDS011;30778;53.574;7.770;2023-04-01T05:05:50;17.75;;;10.82;;
45039;SDS011;30778;53.574;7.770;2023-04-01T05:08:16;18.50;;;9.32;;
45039;SDS011;30778;53.574;7.770;2023-04-01T05:10:42;15.65;;;9.02;;
45039;SDS011;30778;53.574;7.770;2023-04-01T05:13:08;17.55;;;9.23;;
45039;SDS011;30778;53.574;7.770;2023-04-01T05:15:34;18.90;;;9.18;;
45039;SDS011;30778;53.574;7.770;2023-04-01T05:18:00;14.60;;;7.30;;
45039;SDS011;30778;53.574;7.770;2023-04-01T05:20:26;14.45;;;8.07;;
45039;SDS011;30778;53.574;7.770;2023-04-01T05:22:55;9.88;;;6.35;;
45039;SDS011;30778;53.574;7.770;2023-04-01T05:25:21;9.82;;;5.78;;
45039;SDS011;30778;53.574;7.770;2023-04-01T05:27:47;10.70;;;5.93;;
45039;SDS011;30778;53.574;7.770;2023-04-01T05:30:13;18.92;;;7.75;;
45039;SDS011;30778;53.574;7.770;2023-04-01T05:32:58;9.90;;;6.10;;
45039;SDS011;30778;53.574;7.770;2023-04-01T05:35:24;14.10;;;6.95;;
45039;SDS011;30778;53.574;7.770;2023-04-01T05:37:49;15.25;;;7.28;;
45039;SDS011;30778;53.574;7.770;2023-04-01T05:40:15;14.90;;;7.75;;
45039;SDS011;30778;53.574;7.770;2023-04-01T05:42:43;13.50;;;7.90;;
45039;SDS011;30778;53.574;7.770;2023-04-01T05:45:10;18.38;;;7.18;;
45039;SDS011;30778;53.574;7.770;2023-04-01T05:47:59;10.75;;;6.10;;
45039;SDS011;30778;53.574;7.770;2023-04-01T05:50:26;14.25;;;6.97;;
45039;SDS011;30778;53.574;7.770;2023-04-01T05:52:52;10.75;;;6.07;;
45039;SDS011;30778;53.574;7.770;2023-04-01T05:55:18;15.18;;;7.70;;
45039;SDS011;30778;53.574;7.770;2023-04-01T05:57:45;15.90;;;8.20;;
45039;SDS011;30778;53.574;7.770;2023-04-01T06:00:11;13.48;;;7.35;;
45039;SDS011;30778;53.574;7.770;2023-04-01T06:02:37;15.00;;;8.13;;
45039;SDS011;30778;53.574;7.770;2023-04-01T06:07:47;14.93;;;8.02;;
45039;SDS011;30778;53.574;7.770;2023-04-01T06:10:14;12.15;;;7.28;;
45039;SDS011;30778;53.574;7.770;2023-04-01T06:26:37;11.88;;;5.95;;
45039;SDS011;30778;53.574;7.770;2023-04-01T06:34:41;3.22;;;1.70;;
45039;SDS011;30778;53.574;7.770;2023-04-01T06:37:21;6.35;;;1.42;;
45039;SDS011;30778;53.574;7.770;2023-04-01T06:46:00;1.92;;;0.82;;
45039;SDS011;30778;53.574;7.770;2023-04-01T06:52:05;3.38;;;1.77;;
45039;SDS011;30778;53.574;7.770;2023-04-01T06:55:02;1.58;;;0.65;;
45039;SDS011;30778;53.574;7.770;2023-04-01T06:58:01;2.40;;;0.63;;
45039;SDS011;30778;53.574;7.770;2023-04-01T07:00:32;2.05;;;0.98;;
45039;SDS011;30778;53.574;7.770;2023-04-01T07:05:45;3.17;;;0.68;;
45039;SDS011;30778;53.574;7.770;2023-04-01T07:08:21;4.50;;;2.78;;
45039;SDS011;30778;53.574;7.770;2023-04-01T07:10:55;2.67;;;1.70;;
45039;SDS011;30778;53.574;7.770;2023-04-01T07:13:53;6.03;;;0.85;;
45039;SDS011;30778;53.574;7.770;2023-04-01T07:19:14;2.55;;;0.77;;
45039;SDS011;30778;53.574;7.770;2023-04-01T07:22:05;4.32;;;0.80;;
45039;SDS011;30778;53.574;7.770;2023-04-01T07:27:52;1.27;;;0.70;;
45039;SDS011;30778;53.574;7.770;2023-04-01T07:32:53;1.48;;;0.47;;
45039;SDS011;30778;53.574;7.770;2023-04-01T07:35:28;1.27;;;0.47;;
45039;SDS011;30778;53.574;7.770;2023-04-01T07:40:39;5.60;;;2.35;;
45039;SDS011;30778;53.574;7.770;2023-04-01T07:49:17;1.55;;;0.50;;
45039;SDS011;30778;53.574;7.770;2023-04-01T07:51:56;2.10;;;0.45;;
45039;SDS011;30778;53.574;7.770;2023-04-01T08:02:55;1.20;;;0.40;;
45039;SDS011;30778;53.574;7.770;2023-04-01T08:05:47;2.25;;;0.60;;
45039;SDS011;30778;53.574;7.770;2023-04-01T08:18:03;0.40;;;0.20;;
45039;SDS011;30778;53.574;7.770;2023-04-01T08:23:25;1.50;;;0.50;;
45039;SDS011;30778;53.574;7.770;2023-04-01T08:26:10;4.45;;;0.20;;
45039;SDS011;30778;53.574;7.770;2023-04-01T08:29:06;1.15;;;0.15;;
45039;SDS011;30778;53.574;7.770;2023-04-01T08:31:44;2.63;;;0.28;;
45039;SDS011;30778;53.574;7.770;2023-04-01T08:34:20;2.28;;;0.90;;
45039;SDS011;30778;53.574;7.770;2023-04-01T08:36:53;45.40;;;17.92;;
45039;SDS011;30778;53.574;7.770;2023-04-01T08:39:34;3.58;;;1.33;;
45039;SDS011;30778;53.574;7.770;2023-04-01T08:42:11;2.75;;;1.10;;
45039;SDS011;30778;53.574;7.770;2023-04-01T08:56:36;2.22;;;0.40;;
45039;SDS011;30778;53.574;7.770;2023-04-01T08:59:21;1.10;;;0.43;;
45039;SDS011;30778;53.574;7.770;2023-04-01T09:05:11;1.13;;;0.30;;
45039;SDS011;30778;53.574;7.770;2023-04-01T09:08:16;0.70;;;0.20;;
45039;SDS011;30778;53.574;7.770;2023-04-01T09:17:35;0.93;;;0.20;;
45039;SDS011;30778;53.574;7.770;2023-04-01T09:34:41;1.20;;;0.30;;
45039;SDS011;30778;53.574;7.770;2023-04-01T09:37:36;0.25;;;0.10;;
45039;SDS011;30778;53.574;7.770;2023-04-01T09:43:06;0.55;;;0.10;;
45039;SDS011;30778;53.574;7.770;2023-04-01T09:45:41;18.67;;;8.38;;
45039;SDS011;30778;53.574;7.770;2023-04-01T09:48:19;11.93;;;2.53;;
45039;SDS011;30778;53.574;7.770;2023-04-01T09:53:34;11.77;;;3.85;;
45039;SDS011;30778;53.574;7.770;2023-04-01T09:59:24;51.33;;;16.73;;
45039;SDS011;30778;53.574;7.770;2023-04-01T10:19:48;1.15;;;0.10;;
45039;SDS011;30778;53.574;7.770;2023-04-01T10:36:45;1.27;;;0.10;;
45039;SDS011;30778;53.574;7.770;2023-04-01T10:51:16;1.77;;;0.25;;
45039;SDS011;30778;53.574;7.770;2023-04-01T10:54:02;2.13;;;0.20;;
45039;SDS011;30778;53.574;7.770;2023-04-01T11:36:11;11.98;;;4.05;;
45039;SDS011;30778;53.574;7.770;2023-04-01T11:41:56;1.20;;;0.50;;
45039;SDS011;30778;53.574;7.770;2023-04-01T11:50:39;0.60;;;0.28;;
45039;SDS011;30778;53.574;7.770;2023-04-01T12:05:18;0.30;;;0.10;;
45039;SDS011;30778;53.574;7.770;2023-04-01T12:13:53;0.68;;;0.10;;
45039;SDS011;30778;53.574;7.770;2023-04-01T12:16:28;0.38;;;0.10;;
45039;SDS011;30778;53.574;7.770;2023-04-01T12:28:10;3.92;;;1.23;;
45039;SDS011;30778;53.574;7.770;2023-04-01T12:30:57;1.63;;;0.10;;
45039;SDS011;30778;53.574;7.770;2023-04-01T12:36:18;0.70;;;0.10;;
45039;SDS011;30778;53.574;7.770;2023-04-01T12:38:59;3.55;;;1.02;;
45039;SDS011;30778;53.574;7.770;2023-04-01T12:45:34;19.20;;;6.78;;
45039;SDS011;30778;53.574;7.770;2023-04-01T12:53:24;0.95;;;0.25;;
45039;SDS011;30778;53.574;7.770;2023-04-01T13:07:35;1.10;;;0.22;;
45039;SDS011;30778;53.574;7.770;2023-04-01T13:15:51;1.80;;;0.40;;
45039;SDS011;30778;53.574;7.770;2023-04-01T13:20:59;6.00;;;0.82;;
45039;SDS011;30778;53.574;7.770;2023-04-01T13:25:58;1.90;;;0.75;;
45039;SDS011;30778;53.574;7.770;2023-04-01T13:28:43;2.80;;;0.85;;
45039;SDS011;30778;53.574;7.770;2023-04-01T13:42:23;8.02;;;1.50;;
45039;SDS011;30778;53.574;7.770;2023-04-01T13:45:00;6.53;;;1.67;;
45039;SDS011;30778;53.574;7.770;2023-04-01T13:50:34;4.38;;;1.00;;
45039;SDS011;30778;53.574;7.770;2023-04-01T14:04:37;5.35;;;2.13;;
45039;SDS011;30778;53.574;7.770;2023-04-01T14:13:20;16.55;;;5.63;;
45039;SDS011;30778;53.574;7.770;2023-04-01T14:18:33;4.30;;;2.00;;
45039;SDS011;30778;53.574;7.770;2023-04-01T14:21:09;5.78;;;2.38;;
45039;SDS011;30778;53.574;7.770;2023-04-01T14:26:54;8.15;;;2.97;;
45039;SDS011;30778;53.574;7.770;2023-04-01T14:29:54;7.03;;;2.35;;
45039;SDS011;30778;53.574;7.770;2023-04-01T14:35:33;9.55;;;2.35;;
45039;SDS011;30778;53.574;7.770;2023-04-01T14:49:19;4.53;;;2.75;;
45039;SDS011;30778;53.574;7.770;2023-04-01T14:51:46;10.45;;;2.38;;
45039;SDS011;30778;53.574;7.770;2023-04-01T14:54:16;4.93;;;2.88;;
45039;SDS011;30778;53.574;7.770;2023-04-01T14:57:01;6.53;;;1.98;;
45039;SDS011;30778;53.574;7.770;2023-04-01T14:59:29;6.80;;;2.40;;
45039;SDS011;30778;53.574;7.770;2023-04-01T15:04:53;3.88;;;2.13;;
45039;SDS011;30778;53.574;7.770;2023-04-01T15:11:02;3.50;;;2.28;;
45039;SDS011;30778;53.574;7.770;2023-04-01T15:36:58;5.30;;;2.55;;
45039;SDS011;30778;53.574;7.770;2023-04-01T15:39:42;34.05;;;14.13;;
45039;SDS011;30778;53.574;7.770;2023-04-01T15:47:44;13.13;;;3.47;;
45039;SDS011;30778;53.574;7.770;2023-04-01T15:50:26;8.80;;;3.28;;
45039;SDS011;30778;53.574;7.770;2023-04-01T15:58:32;3.22;;;2.38;;
45039;SDS011;30778;53.574;7.770;2023-04-01T16:06:42;8.00;;;2.15;;
45039;SDS011;30778;53.574;7.770;2023-04-01T16:21:04;7.95;;;2.50;;
45039;SDS011;30778;53.574;7.770;2023-04-01T16:23:52;4.88;;;1.90;;
45039;SDS011;30778;53.574;7.770;2023-04-01T16:29:10;6.63;;;2.63;;
45039;SDS011;30778;53.574;7.770;2023-04-01T16:40:50;5.70;;;1.95;;
45039;SDS011;30778;53.574;7.770;2023-04-01T16:43:45;3.25;;;1.80;;
45039;SDS011;30778;53.574;7.770;2023-04-01T16:54:29;6.00;;;2.50;;
45039;SDS011;30778;53.574;7.770;2023-04-01T16:57:23;10.68;;;2.20;;
45039;SDS011;30778;53.574;7.770;2023-04-01T17:02:31;10.80;;;2.63;;
45039;SDS011;30778;53.574;7.770;2023-04-01T17:10:22;9.07;;;1.98;;
45039;SDS011;30778;53.574;7.770;2023-04-01T17:13:04;3.53;;;2.40;;
45039;SDS011;30778;53.574;7.770;2023-04-01T17:21:49;7.88;;;2.40;;
45039;SDS011;30778;53.574;7.770;2023-04-01T17:37:56;6.43;;;2.28;;
45039;SDS011;30778;53.574;7.770;2023-04-01T17:40:40;6.20;;;2.20;;
45039;SDS011;30778;53.574;7.770;2023-04-01T17:48:23;6.57;;;1.95;;
45039;SDS011;30778;53.574;7.770;2023-04-01T17:51:02;11.55;;;3.08;;
45039;SDS011;30778;53.574;7.770;2023-04-01T17:56:53;4.10;;;1.83;;
45039;SDS011;30778;53.574;7.770;2023-04-01T17:59:38;4.38;;;1.42;;
45039;SDS011;30778;53.574;7.770;2023-04-01T18:13:41;3.70;;;1.55;;
45039;SDS011;30778;53.574;7.770;2023-04-01T18:24:40;4.68;;;1.40;;
45039;SDS011;30778;53.574;7.770;2023-04-01T18:32:23;5.82;;;1.27;;
45039;SDS011;30778;53.574;7.770;2023-04-01T18:34:54;12.02;;;1.67;;
45039;SDS011;30778;53.574;7.770;2023-04-01T18:40:26;2.25;;;0.93;;
45039;SDS011;30778;53.574;7.770;2023-04-01T18:43:01;5.10;;;1.25;;
45039;SDS011;30778;53.574;7.770;2023-04-01T18:45:43;3.47;;;0.90;;
45039;SDS011;30778;53.574;7.770;2023-04-01T18:48:34;4.32;;;1.17;;
45039;SDS011;30778;53.574;7.770;2023-04-01T18:57:18;3.00;;;0.90;;
45039;SDS011;30778;53.574;7.770;2023-04-01T19:00:02;2.70;;;0.60;;
45039;SDS011;30778;53.574;7.770;2023-04-01T19:02:43;2.00;;;1.02;;
45039;SDS011;30778;53.574;7.770;2023-04-01T19:07:49;7.97;;;1.80;;
45039;SDS011;30778;53.574;7.770;2023-04-01T19:15:49;2.75;;;1.20;;
45039;SDS011;30778;53.574;7.770;2023-04-01T19:27:02;3.88;;;0.80;;
45039;SDS011;30778;53.574;7.770;2023-04-01T19:46:33;5.30;;;1.42;;
45039;SDS011;30778;53.574;7.770;2023-04-01T19:52:05;5.20;;;1.30;;
45039;SDS011;30778;53.574;7.770;2023-04-01T19:57:45;5.05;;;2.03;;
45039;SDS011;30778;53.574;7.770;2023-04-01T20:02:53;4.13;;;1.20;;
45039;SDS011;30778;53.574;7.770;2023-04-01T20:07:50;3.08;;;1.00;;
45039;SDS011;30778;53.574;7.770;2023-04-01T20:10:20;3.65;;;1.05;;
45039;SDS011;30778;53.574;7.770;2023-04-01T20:15:59;6.55;;;1.10;;
45039;SDS011;30778;53.574;7.770;2023-04-01T20:19:14;7.22;;;1.38;;
45039;SDS011;30778;53.574;7.770;2023-04-01T20:23:54;2.33;;;1.10;;
45039;SDS011;30778;53.574;7.770;2023-04-01T20:26:31;7.32;;;1.20;;
45039;SDS011;30778;53.574;7.770;2023-04-01T20:29:05;3.33;;;0.85;;
45039;SDS011;30778;53.574;7.770;2023-04-01T20:31:58;9.30;;;1.23;;
45039;SDS011;30778;53.574;7.770;2023-04-01T20:34:50;5.95;;;0.70;;
45039;SDS011;30778;53.574;7.770;2023-04-01T20:51:30;3.00;;;0.80;;
45039;SDS011;30778;53.574;7.770;2023-04-01T21:04:45;2.15;;;0.30;;
45039;SDS011;30778;53.574;7.770;2023-04-01T21:18:40;2.72;;;0.85;;
45039;SDS011;30778;53.574;7.770;2023-04-01T21:21:43;6.40;;;0.68;;
45039;SDS011;30778;53.574;7.770;2023-04-01T21:27:13;0.98;;;0.40;;
45039;SDS011;30778;53.574;7.770;2023-04-01T21:30:28;4.68;;;0.52;;
45039;SDS011;30778;53.574;7.770;2023-04-01T21:36:20;1.88;;;0.60;;
45039;SDS011;30778;53.574;7.770;2023-04-01T21:38:33;4.82;;;0.57;;
45039;SDS011;30778;53.574;7.770;2023-04-01T21:41:04;2.75;;;0.75;;
45039;SDS011;30778;53.574;7.770;2023-04-01T21:46:21;4.30;;;1.00;;
45039;SDS011;30778;53.574;7.770;2023-04-01T22:07:56;6.03;;;0.95;;
45039;SDS011;30778;53.574;7.770;2023-04-01T22:10:33;1.02;;;0.30;;
45039;SDS011;30778;53.574;7.770;2023-04-01T22:16:04;8.50;;;0.65;;
45039;SDS011;30778;53.574;7.770;2023-04-01T22:18:55;2.80;;;0.50;;
45039;SDS011;30778;53.574;7.770;2023-04-01T22:21:32;5.00;;;0.60;;
45039;SDS011;30778;53.574;7.770;2023-04-01T22:29:35;3.53;;;0.80;;
45039;SDS011;30778;53.574;7.770;2023-04-01T22:32:23;3.78;;;0.47;;
45039;SDS011;30778;53.574;7.770;2023-04-01T22:43:09;1.40;;;0.55;;
45039;SDS011;30778;53.574;7.770;2023-04-01T22:48:26;1.80;;;0.55;;
45039;SDS011;30778;53.574;7.770;2023-04-01T22:56:29;3.53;;;0.57;;
45039;SDS011;30778;53.574;7.770;2023-04-01T22:59:04;2.55;;;0.63;;
45039;SDS011;30778;53.574;7.770;2023-04-01T23:01:39;3.30;;;0.45;;
45039;SDS011;30778;53.574;7.770;2023-04-01T23:04:09;3.70;;;0.32;;
45039;SDS011;30778;53.574;7.770;2023-04-01T23:06:42;6.47;;;0.60;;
45039;SDS011;30778;53.574;7.770;2023-04-01T23:09:15;2.55;;;0.43;;
45039;SDS011;30778;53.574;7.770;2023-04-01T23:11:50;13.40;;;1.38;;
45039;SDS011;30778;53.574;7.770;2023-04-01T23:17:31;2.08;;;0.95;;
45039;SDS011;30778;53.574;7.770;2023-04-01T23:24:52;3.25;;;0.63;;
45039;SDS011;30778;53.574;7.770;2023-04-01T23:27:27;1.95;;;0.50;;
45039;SDS011;30778;53.574;7.770;2023-04-01T23:29:59;7.28;;;0.50;;
45039;SDS011;30778;53.574;7.770;2023-04-01T23:32:24;1.20;;;0.45;;
45039;SDS011;30778;53.574;7.770;2023-04-01T23:34:55;2.25;;;0.70;;
45039;SDS011;30778;53.574;7.770;2023-04-01T23:39:50;3.55;;;0.52;;
45039;SDS011;30778;53.574;7.770;2023-04-01T23:42:22;3.55;;;0.70;;
45039;SDS011;30778;53.574;7.770;2023-04-01T23:45:11;11.07;;;0.40;;
45039;SDS011;30778;53.574;7.770;2023-04-01T23:47:42;7.38;;;0.50;;
45039;SDS011;30778;53.574;7.770;2023-04-01T23:50:14;1.42;;;0.45;;
45039;SDS011;30778;53.574;7.770;2023-04-01T23:52:43;2.70;;;0.75;;
45039;SDS011;30778;53.574;7.770;2023-04-01T23:55:14;2.88;;;0.55;;
